Terminal Aerodrome Forecast
Issued by NWS

Current Version | Previous Version | Text Only | Print | Product List | Glossary On
Versions: 1 2 3 4 5 6 7 8 9 10 11 12 13 14
985
FTUS42 KMHX 191745
TAFOAJ
TAF
KOAJ 191745Z 1918/2018 VRB04KT P6SM SKC
      TEMPO 2009/2012 5SM BR
      AMD LTD TO CLD VIS AND WIND=

USA.gov is the U.S. government's official web portal to all federal, state and local government web resources and services.